createdAt,value
2018-11-26T00:00:28.784Z,934.31
2018-11-26T00:01:28.780Z,934.29
2018-11-26T00:02:28.769Z,934.27
2018-11-26T00:03:28.761Z,934.27
2018-11-26T00:04:28.751Z,934.22
2018-11-26T00:05:28.741Z,934.20
2018-11-26T00:06:28.734Z,934.18
2018-11-26T00:07:28.711Z,934.20
2018-11-26T00:08:28.713Z,934.23
2018-11-26T00:09:28.696Z,934.22
2018-11-26T00:10:28.694Z,934.28
2018-11-26T00:11:28.684Z,934.23
2018-11-26T00:12:28.675Z,934.25
2018-11-26T00:13:28.665Z,934.23
2018-11-26T00:14:28.658Z,934.26
2018-11-26T00:15:28.647Z,934.21
2018-11-26T00:16:28.638Z,934.21
2018-11-26T00:17:28.629Z,934.20
2018-11-26T00:18:28.620Z,934.19
2018-11-26T00:19:28.609Z,934.20
2018-11-26T00:20:28.600Z,934.20
2018-11-26T00:21:28.592Z,934.20
2018-11-26T00:22:28.582Z,934.21
2018-11-26T00:23:28.574Z,934.21
2018-11-26T00:24:28.611Z,934.15
2018-11-26T00:25:28.555Z,934.16
2018-11-26T00:26:28.542Z,934.17
2018-11-26T00:27:28.537Z,934.15
2018-11-26T00:28:28.527Z,934.17
2018-11-26T00:29:28.518Z,934.16
2018-11-26T00:30:28.509Z,934.15
2018-11-26T00:31:28.501Z,934.16
2018-11-26T00:32:28.508Z,934.19
2018-11-26T00:33:28.483Z,934.19
2018-11-26T00:34:28.472Z,934.23
2018-11-26T00:35:28.463Z,934.25
2018-11-26T00:36:28.448Z,934.27
2018-11-26T00:37:28.445Z,934.25
2018-11-26T00:38:28.441Z,934.26
2018-11-26T00:39:28.427Z,934.23
2018-11-26T00:40:28.415Z,934.25
2018-11-26T00:41:28.410Z,934.24
2018-11-26T00:42:28.400Z,934.23
2018-11-26T00:43:28.395Z,934.25
2018-11-26T00:44:28.384Z,934.21
2018-11-26T00:45:28.371Z,934.17
2018-11-26T00:46:28.363Z,934.14
2018-11-26T00:47:28.349Z,934.14
2018-11-26T00:48:28.345Z,934.10
2018-11-26T00:49:28.334Z,934.08
2018-11-26T00:50:28.325Z,934.04
2018-11-26T00:51:28.321Z,934.05
2018-11-26T00:52:28.297Z,934.08
2018-11-26T00:53:28.299Z,934.05
2018-11-26T00:54:28.289Z,934.05
2018-11-26T00:55:28.280Z,934.02
2018-11-26T00:56:28.274Z,933.97
2018-11-26T00:57:28.279Z,933.96
2018-11-26T00:58:28.254Z,933.95
2018-11-26T00:59:28.244Z,933.93
2018-11-26T01:00:28.236Z,933.93
2018-11-26T01:01:28.229Z,933.91
2018-11-26T01:02:28.218Z,933.91
2018-11-26T01:03:28.210Z,933.94
2018-11-26T01:04:28.203Z,933.94
2018-11-26T01:05:28.191Z,933.93
2018-11-26T01:06:28.181Z,933.92
2018-11-26T01:07:28.171Z,933.90
2018-11-26T01:08:28.159Z,933.93
2018-11-26T01:09:28.154Z,933.90
2018-11-26T01:10:28.145Z,933.94
2018-11-26T01:11:28.136Z,933.95
2018-11-26T01:12:28.126Z,933.97
2018-11-26T01:13:28.119Z,933.97
2018-11-26T01:14:28.109Z,933.92
2018-11-26T01:15:28.103Z,933.98
2018-11-26T01:16:28.093Z,933.98
2018-11-26T01:17:28.084Z,933.96
2018-11-26T01:18:28.073Z,933.96
2018-11-26T01:19:28.064Z,933.99
2018-11-26T01:20:28.053Z,933.98
2018-11-26T01:21:28.043Z,933.95
2018-11-26T01:22:28.036Z,933.95
2018-11-26T01:23:28.026Z,933.95
2018-11-26T01:24:28.019Z,934.01
2018-11-26T01:25:28.013Z,933.99
2018-11-26T01:26:28.000Z,933.98
2018-11-26T01:27:27.994Z,933.97
2018-11-26T01:28:27.981Z,934.02
2018-11-26T01:29:27.972Z,934.00
2018-11-26T01:30:27.971Z,933.98
2018-11-26T01:31:27.954Z,934.02
2018-11-26T01:32:27.946Z,934.05
2018-11-26T01:33:27.938Z,933.99
2018-11-26T01:34:27.949Z,934.01
2018-11-26T01:35:27.925Z,933.98
2018-11-26T01:36:27.908Z,933.98
2018-11-26T01:37:27.899Z,933.96
2018-11-26T01:38:27.880Z,933.97
2018-11-26T01:39:27.881Z,934.00
2018-11-26T01:40:27.872Z,934.01
2018-11-26T01:41:27.859Z,933.96
2018-11-26T01:42:27.853Z,933.97
2018-11-26T01:43:27.845Z,933.96
2018-11-26T01:44:27.835Z,933.95
2018-11-26T01:45:27.838Z,933.99
2018-11-26T01:46:27.817Z,933.98
2018-11-26T01:47:27.810Z,933.92
2018-11-26T01:48:27.802Z,933.94
2018-11-26T01:49:27.792Z,933.96
2018-11-26T01:50:27.783Z,933.97
2018-11-26T01:51:27.773Z,933.98
2018-11-26T01:52:27.764Z,933.95
2018-11-26T01:53:27.754Z,933.98
2018-11-26T01:54:27.745Z,933.97
2018-11-26T01:55:27.735Z,933.98
2018-11-26T01:56:27.728Z,933.99
2018-11-26T01:57:27.717Z,933.94
2018-11-26T01:58:27.697Z,933.91
2018-11-26T01:59:27.700Z,933.91
2018-11-26T02:00:27.691Z,933.88
2018-11-26T02:01:27.691Z,933.94
2018-11-26T02:02:27.676Z,933.90
2018-11-26T02:03:27.674Z,933.92
2018-11-26T02:04:27.655Z,933.98
2018-11-26T02:05:27.645Z,933.99
2018-11-26T02:06:27.636Z,933.99
2018-11-26T02:07:27.628Z,933.99
2018-11-26T02:08:27.618Z,934.03
2018-11-26T02:09:27.644Z,934.03
2018-11-26T02:10:27.602Z,934.01
2018-11-26T02:11:27.594Z,933.98
2018-11-26T02:12:27.581Z,933.99
2018-11-26T02:13:27.575Z,934.07
2018-11-26T02:14:27.566Z,934.05
2018-11-26T02:15:27.554Z,934.09
2018-11-26T02:16:27.547Z,934.10
2018-11-26T02:17:27.537Z,934.10
2018-11-26T02:18:27.529Z,934.07
2018-11-26T02:19:27.517Z,934.08
2018-11-26T02:20:27.509Z,934.03
2018-11-26T02:21:27.509Z,934.02
2018-11-26T02:22:27.493Z,934.02
2018-11-26T02:23:27.483Z,934.00
2018-11-26T02:24:27.477Z,933.98
2018-11-26T02:25:27.452Z,933.96
2018-11-26T02:26:27.456Z,933.94
2018-11-26T02:27:27.446Z,933.92
2018-11-26T02:28:27.437Z,933.94
2018-11-26T02:29:27.428Z,933.90
2018-11-26T02:30:27.419Z,933.92
2018-11-26T02:31:27.408Z,933.89
2018-11-26T02:32:27.402Z,933.93
2018-11-26T02:33:27.394Z,933.93
2018-11-26T02:34:27.384Z,933.92
2018-11-26T02:35:27.377Z,933.89
2018-11-26T02:36:27.362Z,933.88
2018-11-26T02:37:27.357Z,933.87
2018-11-26T02:38:27.346Z,933.84
2018-11-26T02:39:27.340Z,933.86
2018-11-26T02:40:27.325Z,933.85
2018-11-26T02:41:27.306Z,933.80
2018-11-26T02:42:27.307Z,933.76
2018-11-26T02:43:27.300Z,933.77
2018-11-26T02:44:27.290Z,933.74
2018-11-26T02:45:27.280Z,933.72
2018-11-26T02:46:27.270Z,933.72
2018-11-26T02:47:27.261Z,933.71
2018-11-26T02:48:27.254Z,933.72
2018-11-26T02:49:27.242Z,933.72
2018-11-26T02:50:27.238Z,933.74
2018-11-26T02:51:27.212Z,933.74
2018-11-26T02:52:27.216Z,933.76
2018-11-26T02:53:27.206Z,933.76
2018-11-26T02:54:27.198Z,933.77
2018-11-26T02:55:27.186Z,933.78
2018-11-26T02:56:27.178Z,933.76
2018-11-26T02:57:27.170Z,933.77
2018-11-26T02:58:27.158Z,933.75
2018-11-26T02:59:27.147Z,933.77
2018-11-26T03:00:27.146Z,933.80
2018-11-26T03:01:27.134Z,933.80
2018-11-26T03:02:27.124Z,933.79
2018-11-26T03:03:27.115Z,933.80
2018-11-26T03:04:27.108Z,933.82
2018-11-26T03:05:27.099Z,933.80
2018-11-26T03:06:27.085Z,933.85
2018-11-26T03:07:27.076Z,933.88
2018-11-26T03:08:27.074Z,933.85
2018-11-26T03:09:27.062Z,933.83
2018-11-26T03:10:27.050Z,933.84
2018-11-26T03:11:27.041Z,933.76
2018-11-26T03:12:27.033Z,933.82
2018-11-26T03:13:27.022Z,933.86
2018-11-26T03:14:27.011Z,933.86
2018-11-26T03:15:27.004Z,933.89
2018-11-26T03:16:26.994Z,933.90
2018-11-26T03:17:26.985Z,933.89
2018-11-26T03:18:26.973Z,933.91
2018-11-26T03:19:26.969Z,933.94
2018-11-26T03:20:26.956Z,933.94
2018-11-26T03:21:26.949Z,933.90
2018-11-26T03:22:26.960Z,933.91
2018-11-26T03:23:26.932Z,933.94
2018-11-26T03:24:26.921Z,933.93
2018-11-26T03:25:26.912Z,933.92
2018-11-26T03:26:26.906Z,933.96
2018-11-26T03:27:26.899Z,933.96
2018-11-26T03:28:26.883Z,933.96
2018-11-26T03:29:26.879Z,933.91
2018-11-26T03:30:26.874Z,933.92
2018-11-26T03:31:26.849Z,933.89
2018-11-26T03:32:26.864Z,933.89
2018-11-26T03:33:26.840Z,933.91
2018-11-26T03:34:26.837Z,933.90
2018-11-26T03:35:26.821Z,933.87
2018-11-26T03:36:26.814Z,933.88
2018-11-26T03:37:26.807Z,933.88
2018-11-26T03:38:26.797Z,933.91
2018-11-26T03:39:26.783Z,933.89
2018-11-26T03:40:26.778Z,933.95
2018-11-26T03:41:26.781Z,933.95
2018-11-26T03:42:26.763Z,933.98
2018-11-26T03:43:26.751Z,933.98
2018-11-26T03:44:26.750Z,933.92
2018-11-26T03:45:26.726Z,933.93
2018-11-26T03:46:26.713Z,933.92
2018-11-26T03:47:26.714Z,933.97
2018-11-26T03:48:26.706Z,933.98
2018-11-26T03:49:26.697Z,933.99
2018-11-26T03:50:26.688Z,934.01
2018-11-26T03:51:26.678Z,934.02
2018-11-26T03:52:26.670Z,934.03
2018-11-26T03:53:26.663Z,934.06
2018-11-26T03:54:26.653Z,934.05
2018-11-26T03:55:26.640Z,934.04
2018-11-26T03:56:26.635Z,934.06
2018-11-26T03:57:26.626Z,934.08
2018-11-26T03:58:26.622Z,934.09
2018-11-26T03:59:26.606Z,934.09
2018-11-26T04:00:26.598Z,934.11
2018-11-26T04:01:26.580Z,934.10
2018-11-26T04:02:26.590Z,934.10
2018-11-26T04:03:26.574Z,934.06
2018-11-26T04:04:26.563Z,934.04
2018-11-26T04:05:26.553Z,934.07
2018-11-26T04:06:26.544Z,934.07
2018-11-26T04:07:26.534Z,934.08
2018-11-26T04:08:26.525Z,934.08
2018-11-26T04:09:26.519Z,934.13
2018-11-26T04:10:26.508Z,934.10
2018-11-26T04:11:26.498Z,934.11
2018-11-26T04:12:26.488Z,934.11
2018-11-26T04:13:26.480Z,934.07
2018-11-26T04:14:26.485Z,934.07
2018-11-26T04:15:26.462Z,934.06
2018-11-26T04:16:26.458Z,934.02
2018-11-26T04:17:26.446Z,934.05
2018-11-26T04:18:26.438Z,934.00
2018-11-26T04:19:26.431Z,933.99
2018-11-26T04:20:26.419Z,934.03
2018-11-26T04:21:26.403Z,933.99
2018-11-26T04:22:26.402Z,933.96
2018-11-26T04:23:26.394Z,933.97
2018-11-26T04:24:26.378Z,933.95
2018-11-26T04:25:26.382Z,933.94
2018-11-26T04:26:26.366Z,933.95
2018-11-26T04:27:26.356Z,933.93
2018-11-26T04:28:26.346Z,933.94
2018-11-26T04:29:26.335Z,933.93
2018-11-26T04:30:26.329Z,933.96
2018-11-26T04:31:26.315Z,933.95
2018-11-26T04:32:26.313Z,933.98
2018-11-26T04:33:26.301Z,934.00
2018-11-26T04:34:26.294Z,933.96
2018-11-26T04:35:26.282Z,933.95
2018-11-26T04:36:26.277Z,933.93
2018-11-26T04:37:26.264Z,933.92
2018-11-26T04:38:26.253Z,933.92
2018-11-26T04:39:26.246Z,933.88
2018-11-26T04:40:26.236Z,933.85
2018-11-26T04:41:26.226Z,933.90
2018-11-26T04:42:26.217Z,933.88
2018-11-26T04:43:26.209Z,933.88
2018-11-26T04:44:26.208Z,933.88
2018-11-26T04:45:26.189Z,933.89
2018-11-26T04:46:26.182Z,933.92
2018-11-26T04:47:26.167Z,933.94
2018-11-26T04:48:26.164Z,933.90
2018-11-26T04:49:26.158Z,933.86
2018-11-26T04:50:26.146Z,933.91
2018-11-26T04:51:26.132Z,933.89
2018-11-26T04:52:26.126Z,933.85
2018-11-26T04:53:26.116Z,933.83
2018-11-26T04:54:26.117Z,933.81
2018-11-26T04:55:26.098Z,933.80
2018-11-26T04:56:26.088Z,933.77
2018-11-26T04:57:26.083Z,933.78
2018-11-26T04:58:26.070Z,933.79
2018-11-26T04:59:26.058Z,933.76
2018-11-26T05:00:26.058Z,933.77
2018-11-26T05:01:26.045Z,933.79
2018-11-26T05:02:26.033Z,933.79
2018-11-26T05:03:26.026Z,933.78
2018-11-26T05:04:26.017Z,933.79
2018-11-26T05:05:26.006Z,933.76
2018-11-26T05:06:26.000Z,933.79
2018-11-26T05:07:25.987Z,933.72
2018-11-26T05:08:25.975Z,933.70
2018-11-26T05:09:25.972Z,933.66
2018-11-26T05:10:25.966Z,933.69
2018-11-26T05:11:25.950Z,933.68
2018-11-26T05:12:25.937Z,933.73
2018-11-26T05:13:25.931Z,933.72
2018-11-26T05:14:25.913Z,933.75
2018-11-26T05:15:25.915Z,933.73
2018-11-26T05:16:25.903Z,933.73
2018-11-26T05:17:25.892Z,933.73
2018-11-26T05:18:25.885Z,933.71
2018-11-26T05:19:25.875Z,933.71
2018-11-26T05:20:25.866Z,933.73
2018-11-26T05:21:25.857Z,933.73
2018-11-26T05:22:25.849Z,933.70
2018-11-26T05:23:25.837Z,933.77
2018-11-26T05:24:25.825Z,933.79
2018-11-26T05:25:25.818Z,933.76
2018-11-26T05:26:25.806Z,933.76
2018-11-26T05:27:25.799Z,933.75
2018-11-26T05:28:25.791Z,933.72
2018-11-26T05:29:25.781Z,933.73
2018-11-26T05:30:25.773Z,933.72
2018-11-26T05:31:25.761Z,933.63
2018-11-26T05:32:25.751Z,933.70
2018-11-26T05:33:25.745Z,933.66
2018-11-26T05:34:25.734Z,933.63
2018-11-26T05:35:25.724Z,933.63
2018-11-26T05:36:25.719Z,933.60
2018-11-26T05:37:25.719Z,933.68
2018-11-26T05:38:25.694Z,933.69
2018-11-26T05:39:25.685Z,933.70
2018-11-26T05:40:25.675Z,933.72
2018-11-26T05:41:25.666Z,933.72
2018-11-26T05:42:28.839Z,933.72
2018-11-26T05:43:25.649Z,933.72
2018-11-26T05:44:25.632Z,933.77
2018-11-26T05:45:25.629Z,933.71
2018-11-26T05:46:25.625Z,933.74
2018-11-26T05:47:25.608Z,933.74
2018-11-26T05:48:25.598Z,933.75
2018-11-26T05:49:25.589Z,933.75
2018-11-26T05:50:25.580Z,933.76
2018-11-26T05:51:25.568Z,933.76
2018-11-26T05:52:25.581Z,933.76
2018-11-26T05:53:25.549Z,933.77
2018-11-26T05:54:25.543Z,933.76
2018-11-26T05:55:25.529Z,933.81
2018-11-26T05:56:25.515Z,933.78
2018-11-26T05:57:25.514Z,933.77
2018-11-26T05:58:25.505Z,933.80
2018-11-26T05:59:25.493Z,933.77
2018-11-26T06:00:25.481Z,933.74
2018-11-26T06:01:25.472Z,933.77
2018-11-26T06:02:25.460Z,933.71
2018-11-26T06:03:25.454Z,933.70
2018-11-26T06:04:25.442Z,933.69
2018-11-26T06:05:25.432Z,933.71
2018-11-26T06:06:25.422Z,933.74
2018-11-26T06:07:25.412Z,933.73
2018-11-26T06:08:25.403Z,933.71
2018-11-26T06:09:25.392Z,933.74
2018-11-26T06:10:25.380Z,933.70
2018-11-26T06:11:25.373Z,933.73
2018-11-26T06:12:25.365Z,933.70
2018-11-26T06:13:25.356Z,933.71
2018-11-26T06:14:25.341Z,933.71
2018-11-26T06:15:25.333Z,933.70
2018-11-26T06:16:25.325Z,933.66
2018-11-26T06:17:25.318Z,933.70
2018-11-26T06:18:25.307Z,933.70
2018-11-26T06:19:25.293Z,933.71
2018-11-26T06:20:25.305Z,933.76
2018-11-26T06:21:25.273Z,933.72
2018-11-26T06:22:25.257Z,933.74
2018-11-26T06:23:25.251Z,933.77
2018-11-26T06:24:25.243Z,933.72
2018-11-26T06:25:25.233Z,933.79
2018-11-26T06:26:25.228Z,933.74
2018-11-26T06:27:25.215Z,933.77
2018-11-26T06:28:25.197Z,933.76
2018-11-26T06:29:25.193Z,933.79
2018-11-26T06:30:25.179Z,933.79
2018-11-26T06:31:25.172Z,933.84
2018-11-26T06:32:25.167Z,933.78
2018-11-26T06:33:25.156Z,933.83
2018-11-26T06:34:25.148Z,933.85
2018-11-26T06:35:25.134Z,933.83
2018-11-26T06:36:25.123Z,933.81
2018-11-26T06:37:25.114Z,933.83
2018-11-26T06:38:25.113Z,933.82
2018-11-26T06:39:25.093Z,933.80
2018-11-26T06:40:25.079Z,933.83
2018-11-26T06:41:25.075Z,933.79
2018-11-26T06:42:25.062Z,933.79
2018-11-26T06:43:25.056Z,933.78
2018-11-26T06:44:25.047Z,933.83
2018-11-26T06:45:25.033Z,933.82
2018-11-26T06:46:25.030Z,933.86
2018-11-26T06:47:25.013Z,933.87
2018-11-26T06:48:25.004Z,933.84
2018-11-26T06:49:25.030Z,933.88
2018-11-26T06:50:24.982Z,933.82
2018-11-26T06:51:24.973Z,933.85
2018-11-26T06:52:24.962Z,933.87
2018-11-26T06:53:24.969Z,933.82
2018-11-26T06:54:24.942Z,933.85
2018-11-26T06:55:24.934Z,933.83
2018-11-26T06:56:24.921Z,933.85
2018-11-26T06:57:24.916Z,933.89
2018-11-26T06:58:24.901Z,933.86
2018-11-26T06:59:24.894Z,933.87
2018-11-26T07:00:24.882Z,933.88
2018-11-26T07:01:24.874Z,933.87
2018-11-26T07:02:24.861Z,933.87
2018-11-26T07:03:24.855Z,933.87
2018-11-26T07:04:24.843Z,933.90
2018-11-26T07:05:24.832Z,933.94
2018-11-26T07:06:24.815Z,933.93
2018-11-26T07:07:24.852Z,933.93
2018-11-26T07:08:24.804Z,933.98
2018-11-26T07:09:24.792Z,933.96
2018-11-26T07:10:24.790Z,933.98
2018-11-26T07:11:24.773Z,934.02
2018-11-26T07:12:24.764Z,934.04
2018-11-26T07:13:24.751Z,934.04
2018-11-26T07:14:24.744Z,934.02
2018-11-26T07:15:24.740Z,934.05
2018-11-26T07:16:24.721Z,934.04
2018-11-26T07:17:24.715Z,934.10
2018-11-26T07:18:24.706Z,934.05
2018-11-26T07:19:24.698Z,934.08
2018-11-26T07:20:24.688Z,934.09
2018-11-26T07:21:24.677Z,934.08
2018-11-26T07:22:24.667Z,934.13
2018-11-26T07:23:24.657Z,934.13
2018-11-26T07:24:24.648Z,934.18
2018-11-26T07:25:24.638Z,934.17
2018-11-26T07:26:24.643Z,934.17
2018-11-26T07:27:24.633Z,934.16
2018-11-26T07:28:24.610Z,934.21
2018-11-26T07:29:24.603Z,934.21
2018-11-26T07:30:24.593Z,934.23
2018-11-26T07:31:24.579Z,934.21
2018-11-26T07:32:24.571Z,934.24
2018-11-26T07:33:24.567Z,934.23
2018-11-26T07:34:24.557Z,934.22
2018-11-26T07:35:24.544Z,934.21
2018-11-26T07:36:24.535Z,934.23
2018-11-26T07:37:24.525Z,934.29
2018-11-26T07:38:24.517Z,934.30
2018-11-26T07:39:24.504Z,934.32
2018-11-26T07:40:24.499Z,934.32
2018-11-26T07:41:24.491Z,934.34
2018-11-26T07:42:24.480Z,934.38
2018-11-26T07:43:24.468Z,934.32
2018-11-26T07:44:24.461Z,934.35
2018-11-26T07:45:24.451Z,934.33
2018-11-26T07:46:24.445Z,934.37
2018-11-26T07:47:24.435Z,934.38
2018-11-26T07:48:24.424Z,934.32
2018-11-26T07:49:24.415Z,934.40
2018-11-26T07:50:24.411Z,934.36
2018-11-26T07:51:24.389Z,934.37
2018-11-26T07:52:24.388Z,934.41
2018-11-26T07:53:24.385Z,934.37
2018-11-26T07:54:24.474Z,934.37
2018-11-26T07:55:24.364Z,934.38
2018-11-26T07:56:24.342Z,934.43
2018-11-26T07:57:24.346Z,934.36
2018-11-26T07:58:24.336Z,934.45
2018-11-26T07:59:24.328Z,934.44
2018-11-26T08:00:24.331Z,934.38
2018-11-26T08:01:24.310Z,934.37
2018-11-26T08:02:24.303Z,934.37
2018-11-26T08:03:24.299Z,934.39
2018-11-26T08:04:24.287Z,934.41
2018-11-26T08:05:24.279Z,934.38
2018-11-26T08:06:24.261Z,934.37
2018-11-26T08:07:24.255Z,934.41
2018-11-26T08:08:24.247Z,934.40
2018-11-26T08:09:24.241Z,934.42
2018-11-26T08:10:24.230Z,934.43
2018-11-26T08:11:24.222Z,934.43
2018-11-26T08:12:24.217Z,934.43
2018-11-26T08:13:24.208Z,934.47
2018-11-26T08:14:24.195Z,934.45
2018-11-26T08:15:24.186Z,934.46
2018-11-26T08:16:24.172Z,934.46
2018-11-26T08:17:24.171Z,934.45
2018-11-26T08:18:24.172Z,934.48
2018-11-26T08:19:24.154Z,934.52
2018-11-26T08:20:24.147Z,934.51
2018-11-26T08:21:24.134Z,934.50
2018-11-26T08:22:24.128Z,934.52
2018-11-26T08:23:24.121Z,934.47
2018-11-26T08:24:24.108Z,934.50
2018-11-26T08:25:24.100Z,934.48
2018-11-26T08:26:24.087Z,934.55
2018-11-26T08:27:24.085Z,934.51
2018-11-26T08:28:24.075Z,934.52
2018-11-26T08:29:24.067Z,934.55
2018-11-26T08:30:24.080Z,934.54
2018-11-26T08:31:24.049Z,934.55
2018-11-26T08:32:24.040Z,934.51
2018-11-26T08:33:24.038Z,934.53
2018-11-26T08:34:24.024Z,934.54
2018-11-26T08:35:24.015Z,934.55
2018-11-26T08:36:24.006Z,934.56
2018-11-26T08:37:23.999Z,934.58
2018-11-26T08:38:23.989Z,934.56
2018-11-26T08:39:23.981Z,934.55
2018-11-26T08:40:23.972Z,934.58
2018-11-26T08:41:23.963Z,934.57
2018-11-26T08:42:23.959Z,934.59
2018-11-26T08:43:23.949Z,934.57
2018-11-26T08:44:23.940Z,934.60
2018-11-26T08:45:23.933Z,934.61
2018-11-26T08:46:23.922Z,934.61
2018-11-26T08:47:23.909Z,934.62
2018-11-26T08:48:23.901Z,934.64
2018-11-26T08:49:23.903Z,934.63
2018-11-26T08:50:23.894Z,934.67
2018-11-26T08:51:23.878Z,934.64
2018-11-26T08:52:23.872Z,934.67
2018-11-26T08:53:23.861Z,934.66
2018-11-26T08:54:23.850Z,934.71
2018-11-26T08:55:23.843Z,934.68
2018-11-26T08:56:23.835Z,934.69
2018-11-26T08:57:23.827Z,934.68
2018-11-26T08:58:23.818Z,934.68
2018-11-26T08:59:23.828Z,934.67
2018-11-26T09:00:23.807Z,934.70
2018-11-26T09:01:23.793Z,934.70
2018-11-26T09:02:23.786Z,934.73
2018-11-26T09:03:23.785Z,934.76
2018-11-26T09:04:23.768Z,934.78
2018-11-26T09:05:24.343Z,934.83
2018-11-26T09:06:23.749Z,934.79
2018-11-26T09:07:23.743Z,934.76
2018-11-26T09:08:23.736Z,934.80
2018-11-26T09:09:23.737Z,934.78
2018-11-26T09:10:23.718Z,934.80
2018-11-26T09:11:23.712Z,934.80
2018-11-26T09:12:23.705Z,934.76
2018-11-26T09:13:23.693Z,934.80
2018-11-26T09:14:23.680Z,934.78
2018-11-26T09:15:23.678Z,934.81
2018-11-26T09:16:23.668Z,934.80
2018-11-26T09:17:23.660Z,934.83
2018-11-26T09:18:23.652Z,934.80
2018-11-26T09:19:23.670Z,934.85
2018-11-26T09:20:23.639Z,934.84
2018-11-26T09:21:23.629Z,934.84
2018-11-26T09:22:23.619Z,934.84
2018-11-26T09:23:23.611Z,934.85
2018-11-26T09:24:23.606Z,934.83
2018-11-26T09:25:23.596Z,934.83
2018-11-26T09:26:23.591Z,934.81
2018-11-26T09:27:23.583Z,934.85
2018-11-26T09:28:23.573Z,934.85
2018-11-26T09:29:23.573Z,934.85
2018-11-26T09:30:23.577Z,934.88
2018-11-26T09:31:23.555Z,934.90
2018-11-26T09:32:23.541Z,934.87
2018-11-26T09:33:23.539Z,934.89
2018-11-26T09:34:23.523Z,934.85
2018-11-26T09:35:23.517Z,934.86
2018-11-26T09:36:23.515Z,934.84
2018-11-26T09:37:23.499Z,934.86
2018-11-26T09:38:23.492Z,934.87
2018-11-26T09:39:23.512Z,934.85
2018-11-26T09:40:23.476Z,934.86
2018-11-26T09:41:23.468Z,934.85
2018-11-26T09:42:23.460Z,934.85
2018-11-26T09:43:23.453Z,934.84
2018-11-26T09:44:23.445Z,934.82
2018-11-26T09:45:23.437Z,934.83
2018-11-26T09:46:23.433Z,934.79
2018-11-26T09:47:23.422Z,934.79
2018-11-26T09:48:23.413Z,934.83
2018-11-26T09:49:23.427Z,934.80
2018-11-26T09:50:23.399Z,934.81
2018-11-26T09:51:23.398Z,934.82
2018-11-26T09:52:23.390Z,934.80
2018-11-26T09:53:23.375Z,934.75
2018-11-26T09:54:25.999Z,934.76
2018-11-26T09:55:23.357Z,934.78
2018-11-26T09:56:23.353Z,934.76
2018-11-26T09:57:23.346Z,934.81
2018-11-26T09:58:23.338Z,934.80
2018-11-26T09:59:23.340Z,934.84
2018-11-26T10:00:23.324Z,934.82
2018-11-26T10:01:23.316Z,934.82
2018-11-26T10:02:23.306Z,934.79
2018-11-26T10:03:23.301Z,934.82
2018-11-26T10:04:23.295Z,934.80
2018-11-26T10:05:23.286Z,934.82
2018-11-26T10:06:23.281Z,934.80
2018-11-26T10:07:23.274Z,934.83
2018-11-26T10:08:23.265Z,934.77
2018-11-26T10:09:23.267Z,934.82
2018-11-26T10:10:23.253Z,934.80
2018-11-26T10:11:23.260Z,934.81
2018-11-26T10:12:23.236Z,934.76
2018-11-26T10:13:23.234Z,934.80
2018-11-26T10:14:23.222Z,934.74
2018-11-26T10:15:23.208Z,934.72
2018-11-26T10:16:23.220Z,934.71
2018-11-26T10:17:23.201Z,934.70
2018-11-26T10:18:23.193Z,934.68
2018-11-26T10:19:23.187Z,934.74
2018-11-26T10:20:23.179Z,934.73
2018-11-26T10:21:23.167Z,934.73
2018-11-26T10:22:23.185Z,934.72
2018-11-26T10:23:23.152Z,934.73
2018-11-26T10:24:23.150Z,934.73
2018-11-26T10:25:23.370Z,934.72
2018-11-26T10:26:23.137Z,934.73
2018-11-26T10:27:23.130Z,934.67
2018-11-26T10:28:23.115Z,934.68
2018-11-26T10:29:23.116Z,934.68
2018-11-26T10:30:23.420Z,934.70
2018-11-26T10:31:23.102Z,934.70
2018-11-26T10:32:23.094Z,934.70
2018-11-26T10:33:23.094Z,934.69
2018-11-26T10:34:23.076Z,934.67
2018-11-26T10:35:23.074Z,934.68
2018-11-26T10:36:23.067Z,934.68
2018-11-26T10:37:23.059Z,934.69
2018-11-26T10:38:23.053Z,934.68
2018-11-26T10:39:23.058Z,934.71
2018-11-26T10:40:23.039Z,934.69
2018-11-26T10:41:23.032Z,934.69
2018-11-26T10:42:23.026Z,934.73
2018-11-26T10:43:23.015Z,934.69
2018-11-26T10:44:23.009Z,934.72
2018-11-26T10:45:23.000Z,934.74
2018-11-26T10:46:22.996Z,934.74
2018-11-26T10:47:22.987Z,934.73
2018-11-26T10:48:22.982Z,934.69
2018-11-26T10:49:22.976Z,934.75
2018-11-26T10:50:22.970Z,934.77
2018-11-26T10:51:22.957Z,934.75
2018-11-26T10:52:22.947Z,934.75
2018-11-26T10:53:22.941Z,934.75
2018-11-26T10:54:22.935Z,934.70
2018-11-26T10:55:22.928Z,934.76
2018-11-26T10:56:22.914Z,934.74
2018-11-26T10:57:22.915Z,934.75
2018-11-26T10:58:22.907Z,934.69
2018-11-26T10:59:22.895Z,934.74
2018-11-26T11:00:22.894Z,934.73
2018-11-26T11:01:22.886Z,934.70
2018-11-26T11:02:22.877Z,934.68
2018-11-26T11:03:22.913Z,934.72
2018-11-26T11:04:22.863Z,934.75
2018-11-26T11:05:22.851Z,934.75
2018-11-26T11:06:22.843Z,934.80
2018-11-26T11:07:22.838Z,934.76
2018-11-26T11:08:23.803Z,934.77
2018-11-26T11:09:22.824Z,934.78
2018-11-26T11:10:22.815Z,934.76
2018-11-26T11:11:23.487Z,934.77
2018-11-26T11:12:22.788Z,934.79
2018-11-26T11:13:22.787Z,934.73
2018-11-26T11:14:22.843Z,934.80
2018-11-26T11:15:22.773Z,934.81
2018-11-26T11:16:22.790Z,934.77
2018-11-26T11:17:22.765Z,934.78
2018-11-26T11:18:22.751Z,934.79
2018-11-26T11:19:22.742Z,934.76
2018-11-26T11:20:22.736Z,934.70
2018-11-26T11:21:22.726Z,934.73
2018-11-26T11:22:22.719Z,934.75
2018-11-26T11:23:22.710Z,934.74
2018-11-26T11:24:22.704Z,934.74
2018-11-26T11:25:22.699Z,934.79
2018-11-26T11:26:22.710Z,934.78
2018-11-26T11:27:22.679Z,934.77
2018-11-26T11:28:22.668Z,934.80
2018-11-26T11:29:22.662Z,934.79
2018-11-26T11:30:22.687Z,934.74
2018-11-26T11:31:22.646Z,934.81
2018-11-26T11:32:22.641Z,934.76
2018-11-26T11:34:22.626Z,934.78
2018-11-26T11:35:22.611Z,934.75
2018-11-26T11:36:22.608Z,934.78
2018-11-26T11:37:22.600Z,934.73
2018-11-26T11:38:22.592Z,934.77
2018-11-26T11:39:22.583Z,934.80
2018-11-26T11:40:22.581Z,934.77
2018-11-26T11:41:22.556Z,934.81
2018-11-26T11:42:22.557Z,934.77
2018-11-26T11:43:22.552Z,934.81
2018-11-26T11:44:22.544Z,934.81
2018-11-26T11:45:22.536Z,934.85
2018-11-26T11:46:22.540Z,934.82
2018-11-26T11:47:22.523Z,934.83
2018-11-26T11:48:22.512Z,934.85
2018-11-26T11:49:22.507Z,934.88
2018-11-26T11:50:22.497Z,934.86
2018-11-26T11:51:22.495Z,934.85
2018-11-26T11:52:22.486Z,934.86
2018-11-26T11:53:22.480Z,934.86
2018-11-26T11:54:22.468Z,934.84
2018-11-26T11:55:22.460Z,934.83
2018-11-26T11:56:22.452Z,934.83
2018-11-26T11:57:22.445Z,934.79
2018-11-26T11:58:22.436Z,934.83
2018-11-26T11:59:22.430Z,934.81
2018-11-26T12:00:22.410Z,934.88
2018-11-26T12:01:22.417Z,934.85
2018-11-26T12:02:22.410Z,934.82
2018-11-26T12:03:22.394Z,934.82
2018-11-26T12:04:22.391Z,934.84
2018-11-26T12:05:22.383Z,934.84
2018-11-26T12:06:22.388Z,934.84
2018-11-26T12:07:22.367Z,934.85
2018-11-26T12:08:22.359Z,934.89
2018-11-26T12:09:22.354Z,934.89
2018-11-26T12:10:22.347Z,934.87
2018-11-26T12:11:22.338Z,934.87
2018-11-26T12:12:22.329Z,934.90
2018-11-26T12:13:22.323Z,934.92
2018-11-26T12:14:22.304Z,934.90
2018-11-26T12:15:22.307Z,934.91
2018-11-26T12:16:22.300Z,934.95
2018-11-26T12:17:22.292Z,934.96
2018-11-26T12:18:22.286Z,934.91
2018-11-26T12:19:22.276Z,934.87
2018-11-26T12:20:22.271Z,934.90
2018-11-26T12:21:22.262Z,934.93
2018-11-26T12:22:22.264Z,934.92
2018-11-26T12:23:22.247Z,934.90
2018-11-26T12:24:22.230Z,934.87
2018-11-26T12:25:22.241Z,934.88
2018-11-26T12:26:22.234Z,934.82
2018-11-26T12:27:22.215Z,934.87
2018-11-26T12:28:22.212Z,934.88
2018-11-26T12:29:22.198Z,934.85